Time;durP1;ratioP1;P1;durP2;ratioP2;P2;SDS_P1;SDS_P2;PMS_P1;PMS_P2;Temp;Humidity;BMP_temperature;BMP_pressure;BME280_temperature;BME280_humidity;BME280_pressure;Samples;Min_cycle;Max_cycle;Signal;HPM_P1;HPM_P2
2022/11/04 00:01:20;;;;;;;42.33;21.13;;;;;;;;;;5074522;28;20048;-33
2022/11/04 00:03:45;;;;;;;44.00;21.27;;;;;;;;;;5074226;28;20031;-34
2022/11/04 00:06:11;;;;;;;43.30;21.30;;;;;;;;;;5073887;28;20024;-33
2022/11/04 00:08:36;;;;;;;48.88;22.58;;;;;;;;;;5073920;28;20028;-33
2022/11/04 00:13:45;;;;;;;48.47;21.80;;;;;;;;;;5073104;28;20097;-33
2022/11/04 00:18:54;;;;;;;52.10;23.65;;;;;;;;;;5073874;28;20035;-33
2022/11/04 00:29:32;;;;;;;50.20;25.10;;;;;;;;;;5073723;28;20027;-33
2022/11/04 00:34:41;;;;;;;60.15;25.25;;;;;;;;;;5073778;28;20249;-33
2022/11/04 00:37:06;;;;;;;50.17;23.63;;;;;;;;;;5073560;28;20025;-33
2022/11/04 00:39:31;;;;;;;55.45;24.98;;;;;;;;;;5073784;28;20465;-33
2022/11/04 00:41:57;;;;;;;54.53;23.93;;;;;;;;;;5073144;28;20013;-33
2022/11/04 00:44:22;;;;;;;57.80;25.53;;;;;;;;;;5073459;28;20229;-33
2022/11/04 00:46:47;;;;;;;60.75;26.45;;;;;;;;;;5073404;28;20241;-33
2022/11/04 00:49:12;;;;;;;55.33;26.52;;;;;;;;;;5073605;28;20470;-33
2022/11/04 00:51:38;;;;;;;54.03;24.90;;;;;;;;;;5073155;28;20064;-33
2022/11/04 00:54:03;;;;;;;50.67;25.15;;;;;;;;;;5071871;28;20043;-33
2022/11/04 00:56:28;;;;;;;49.75;24.45;;;;;;;;;;5073163;28;20016;-34
2022/11/04 00:58:54;;;;;;;55.17;24.83;;;;;;;;;;5073028;28;20036;-32
2022/11/04 01:01:19;;;;;;;54.55;25.35;;;;;;;;;;5073203;28;20021;-32
2022/11/04 01:03:45;;;;;;;55.08;22.98;;;;;;;;;;5073471;28;20023;-32
2022/11/04 01:06:10;;;;;;;56.72;23.50;;;;;;;;;;5072994;28;20024;-32
2022/11/04 01:08:36;;;;;;;55.53;25.13;;;;;;;;;;5071867;28;20104;-32
2022/11/04 01:11:04;;;;;;;54.78;23.75;;;;;;;;;;5073052;28;20025;-32
2022/11/04 01:13:30;;;;;;;52.83;23.67;;;;;;;;;;5072706;28;20032;-32
2022/11/04 01:15:58;;;;;;;53.97;23.80;;;;;;;;;;5072865;28;20479;-33
2022/11/04 01:18:23;;;;;;;56.40;25.55;;;;;;;;;;5073051;28;20074;-33
2022/11/04 01:20:49;;;;;;;59.28;24.15;;;;;;;;;;5072805;28;20024;-32
2022/11/04 01:23:14;;;;;;;48.37;23.70;;;;;;;;;;5073063;28;20031;-32
2022/11/04 01:25:40;;;;;;;63.85;25.15;;;;;;;;;;5071315;28;20261;-32
2022/11/04 01:28:05;;;;;;;54.92;25.58;;;;;;;;;;5072812;28;20444;-32
2022/11/04 01:30:31;;;;;;;60.50;26.60;;;;;;;;;;5072736;28;20474;-32
2022/11/04 01:32:56;;;;;;;59.47;26.40;;;;;;;;;;5072592;28;20068;-32
2022/11/04 01:35:21;;;;;;;91.80;27.73;;;;;;;;;;5072803;28;20245;-32
2022/11/04 01:37:46;;;;;;;74.47;26.52;;;;;;;;;;5071355;28;20020;-32
2022/11/04 01:40:11;;;;;;;102.33;26.93;;;;;;;;;;5072860;28;20024;-33
2022/11/04 01:42:37;;;;;;;112.38;26.88;;;;;;;;;;5073013;28;20249;-32
2022/11/04 01:45:02;;;;;;;62.10;25.02;;;;;;;;;;5072821;28;20123;-32
2022/11/04 01:47:33;;;;;;;89.78;25.48;;;;;;;;;;5073082;28;20032;-32
2022/11/04 01:50:17;;;;;;;72.18;26.10;;;;;;;;;;5071381;28;20360;-32
2022/11/04 01:52:48;;;;;;;87.90;25.75;;;;;;;;;;5071088;28;20136;-33
2022/11/04 01:55:18;;;;;;;87.43;26.50;;;;;;;;;;5072650;28;20070;-32
2022/11/04 01:57:45;;;;;;;60.38;25.50;;;;;;;;;;5072619;28;20016;-32
2022/11/04 02:00:11;;;;;;;78.95;26.60;;;;;;;;;;5072511;28;20056;-32
2022/11/04 02:02:37;;;;;;;116.18;28.17;;;;;;;;;;5071180;28;20059;-32
2022/11/04 02:05:03;;;;;;;86.10;26.08;;;;;;;;;;5072485;28;20035;-32
2022/11/04 02:07:30;;;;;;;64.40;23.98;;;;;;;;;;5070808;28;20024;-32
2022/11/04 02:09:55;;;;;;;90.57;25.67;;;;;;;;;;5071289;28;20379;-32
2022/11/04 02:15:04;;;;;;;52.78;23.33;;;;;;;;;;5072454;28;20035;-32
2022/11/04 02:17:45;;;;;;;71.15;25.13;;;;;;;;;;5072288;28;20025;-32
2022/11/04 02:20:42;;;;;;;51.90;25.50;;;;;;;;;;5072149;28;20535;-32
2022/11/04 02:23:40;;;;;;;52.33;22.38;;;;;;;;;;5070898;28;20414;-32
2022/11/04 02:26:31;;;;;;;64.80;22.75;;;;;;;;;;5059252;28;20040;-32
2022/11/04 02:29:15;;;;;;;82.13;23.95;;;;;;;;;;5070972;28;20045;-32
2022/11/04 02:31:59;;;;;;;75.28;25.42;;;;;;;;;;5071939;28;20048;-32
2022/11/04 02:34:47;;;;;;;57.55;23.15;;;;;;;;;;5072125;28;20028;-32
2022/11/04 02:37:16;;;;;;;72.97;23.73;;;;;;;;;;5074189;28;20044;-32
2022/11/04 02:39:50;;;;;;;51.63;23.55;;;;;;;;;;5075914;28;20020;-32
2022/11/04 02:42:18;;;;;;;60.33;23.30;;;;;;;;;;5075685;28;20032;-32
2022/11/04 02:44:47;;;;;;;49.25;23.65;;;;;;;;;;5075981;28;20028;-32
2022/11/04 02:47:13;;;;;;;;;;;;;;;;;;5076205;28;20028;-32
2022/11/04 02:49:56;;;;;;;45.13;21.92;;;;;;;;;;5075938;28;19911;-32
2022/11/04 02:52:44;;;;;;;65.05;25.55;;;;;;;;;;5075193;28;20399;-32
2022/11/04 02:55:12;;;;;;;50.67;23.02;;;;;;;;;;5075520;28;20023;-32
2022/11/04 02:57:38;;;;;;;45.03;22.67;;;;;;;;;;5075573;28;20028;-32
2022/11/04 03:00:08;;;;;;;56.75;22.73;;;;;;;;;;5075604;28;20016;-32
2022/11/04 03:02:36;;;;;;;51.40;22.25;;;;;;;;;;5075379;28;20048;-32
2022/11/04 03:05:02;;;;;;;58.57;24.10;;;;;;;;;;5075706;28;20028;-32
2022/11/04 03:07:29;;;;;;;47.42;22.92;;;;;;;;;;5075121;28;20431;-32
2022/11/04 03:09:57;;;;;;;50.72;21.55;;;;;;;;;;5075030;28;20016;-33
2022/11/04 03:12:25;;;;;;;57.90;24.60;;;;;;;;;;5075354;28;20036;-32
2022/11/04 03:14:53;;;;;;;46.05;21.23;;;;;;;;;;5075186;28;20023;-32
2022/11/04 03:17:25;;;;;;;48.58;21.98;;;;;;;;;;5074997;28;20099;-32
2022/11/04 03:19:51;;;;;;;52.05;22.45;;;;;;;;;;5074754;28;20047;-32
2022/11/04 03:22:18;;;;;;;48.33;22.17;;;;;;;;;;5074732;28;20056;-33
2022/11/04 03:24:44;;;;;;;48.17;22.85;;;;;;;;;;5073469;28;20044;-32
2022/11/04 03:27:19;;;;;;;49.90;22.55;;;;;;;;;;5074933;28;20021;-32
2022/11/04 03:29:50;;;;;;;59.88;24.00;;;;;;;;;;5074789;28;20024;-32
2022/11/04 03:32:24;;;;;;;66.63;22.85;;;;;;;;;;5074573;28;20024;-32
2022/11/04 03:34:50;;;;;;;59.88;24.58;;;;;;;;;;5074538;28;20052;-33
2022/11/04 03:37:15;;;;;;;52.20;22.33;;;;;;;;;;5073985;28;20059;-32
2022/11/04 03:39:41;;;;;;;52.42;24.63;;;;;;;;;;5074997;28;20017;-32
2022/11/04 03:42:18;;;;;;;55.17;23.33;;;;;;;;;;5074461;28;20430;-32
2022/11/04 03:44:48;;;;;;;50.17;23.08;;;;;;;;;;5074582;28;20169;-32
2022/11/04 03:47:13;;;;;;;59.67;24.20;;;;;;;;;;5073815;28;20016;-32
2022/11/04 03:49:39;;;;;;;53.08;23.48;;;;;;;;;;5073594;28;20020;-32
2022/11/04 03:52:04;;;;;;;54.72;24.48;;;;;;;;;;5074020;28;20418;-32
2022/11/04 03:54:34;;;;;;;53.42;24.33;;;;;;;;;;5074323;28;20372;-33
2022/11/04 03:57:19;;;;;;;61.25;26.33;;;;;;;;;;5074188;28;20028;-32
2022/11/04 03:59:55;;;;;;;56.50;24.23;;;;;;;;;;5073908;28;20092;-32
2022/11/04 04:02:29;;;;;;;55.13;25.60;;;;;;;;;;5074110;28;20021;-32
2022/11/04 04:04:58;;;;;;;53.30;24.48;;;;;;;;;;5074154;28;20360;-32
2022/11/04 04:07:36;;;;;;;63.88;27.50;;;;;;;;;;5073891;28;20028;-33
2022/11/04 04:10:39;;;;;;;56.95;25.75;;;;;;;;;;5073927;28;20150;-33
2022/11/04 04:13:11;;;;;;;50.05;23.77;;;;;;;;;;5073824;28;20036;-32
2022/11/04 04:15:43;;;;;;;61.40;25.38;;;;;;;;;;5074091;28;20032;-32
2022/11/04 04:18:12;;;;;;;55.15;24.05;;;;;;;;;;5073521;28;20028;-32
2022/11/04 04:20:38;;;;;;;67.53;25.95;;;;;;;;;;5073879;28;20052;-32
2022/11/04 04:28:44;;;;;;;64.60;25.80;;;;;;;;;;5073546;28;20078;-32
2022/11/04 04:31:11;;;;;;;71.78;27.40;;;;;;;;;;5073263;28;20039;-32
2022/11/04 04:33:37;;;;;;;54.50;25.05;;;;;;;;;;5073482;28;20036;-32
2022/11/04 04:36:04;;;;;;;67.40;26.52;;;;;;;;;;5073413;28;20066;-32
2022/11/04 04:47:01;;;;;;;67.65;26.50;;;;;;;;;;5073286;28;20375;-32
2022/11/04 04:49:33;;;;;;;55.38;25.45;;;;;;;;;;5073258;28;20035;-33
2022/11/04 04:51:59;;;;;;;55.95;25.77;;;;;;;;;;5073110;28;20368;-33
2022/11/04 04:54:24;;;;;;;59.47;27.20;;;;;;;;;;5073113;28;20035;-32
2022/11/04 04:56:50;;;;;;;65.77;27.77;;;;;;;;;;5071743;28;20521;-32
2022/11/04 04:59:15;;;;;;;68.13;28.40;;;;;;;;;;5072599;28;20724;-32
2022/11/04 05:01:40;;;;;;;64.22;27.15;;;;;;;;;;5072756;28;20024;-32
2022/11/04 05:04:06;;;;;;;60.15;26.05;;;;;;;;;;5072864;28;20395;-33
2022/11/04 05:06:31;;;;;;;60.28;24.95;;;;;;;;;;5072653;28;20104;-33
2022/11/04 05:08:56;;;;;;;50.08;23.23;;;;;;;;;;5072904;28;20471;-33
2022/11/04 05:11:21;;;;;;;55.60;24.48;;;;;;;;;;5072888;28;20022;-33
2022/11/04 05:13:47;;;;;;;47.40;24.20;;;;;;;;;;5071360;28;20113;-33
2022/11/04 05:16:12;;;;;;;55.03;25.58;;;;;;;;;;5072537;28;20409;-33
2022/11/04 05:18:37;;;;;;;55.47;26.58;;;;;;;;;;5072478;28;20382;-33
2022/11/04 05:21:07;;;;;;;53.30;23.38;;;;;;;;;;5072501;28;20024;-33
2022/11/04 05:23:33;;;;;;;48.58;24.67;;;;;;;;;;5072609;28;20032;-32
2022/11/04 05:25:58;;;;;;;57.70;25.60;;;;;;;;;;5072734;28;20078;-32
2022/11/04 05:28:24;;;;;;;50.78;24.35;;;;;;;;;;5072391;28;20455;-32
2022/11/04 05:30:49;;;;;;;50.20;24.15;;;;;;;;;;5072622;28;20063;-33
2022/11/04 05:33:14;;;;;;;57.45;25.30;;;;;;;;;;5072374;28;20071;-33
2022/11/04 05:35:39;;;;;;;49.17;23.87;;;;;;;;;;5072876;28;20020;-33
2022/11/04 05:38:04;;;;;;;63.03;27.52;;;;;;;;;;5072294;28;20248;-33
2022/11/04 05:40:30;;;;;;;50.47;24.80;;;;;;;;;;5072666;28;20035;-33
2022/11/04 05:42:56;;;;;;;48.95;23.55;;;;;;;;;;5072054;28;20775;-33
2022/11/04 05:45:21;;;;;;;51.72;23.63;;;;;;;;;;5072432;28;20017;-33
2022/11/04 05:47:46;;;;;;;48.40;23.23;;;;;;;;;;5070902;28;20115;-33
2022/11/04 05:50:12;;;;;;;50.60;24.52;;;;;;;;;;5072189;28;20016;-33
2022/11/04 05:52:37;;;;;;;51.38;24.70;;;;;;;;;;5072488;28;20502;-33
2022/11/04 05:55:02;;;;;;;46.92;23.85;;;;;;;;;;5072280;28;20103;-33
2022/11/04 05:57:28;;;;;;;49.45;23.98;;;;;;;;;;5071077;28;20487;-34
2022/11/04 05:59:53;;;;;;;45.20;23.77;;;;;;;;;;5072247;28;20025;-33
2022/11/04 06:02:18;;;;;;;46.80;21.67;;;;;;;;;;5072229;28;20027;-33
2022/11/04 06:04:43;;;;;;;45.20;24.40;;;;;;;;;;5072270;28;20312;-33
2022/11/04 06:07:08;;;;;;;45.37;22.97;;;;;;;;;;5072170;28;20241;-33
2022/11/04 06:09:39;;;;;;;47.10;23.27;;;;;;;;;;5072356;28;20238;-32
2022/11/04 06:12:06;;;;;;;41.55;21.88;;;;;;;;;;5074513;28;20100;-33
2022/11/04 06:14:31;;;;;;;50.00;21.83;;;;;;;;;;5076148;28;20036;-32
2022/11/04 06:16:56;;;;;;;44.37;22.27;;;;;;;;;;5076332;28;20371;-32
2022/11/04 06:19:21;;;;;;;46.53;23.75;;;;;;;;;;5075879;28;20315;-33
2022/11/04 06:21:47;;;;;;;38.45;20.67;;;;;;;;;;5074788;28;20021;-33
2022/11/04 06:24:12;;;;;;;41.38;21.38;;;;;;;;;;5076128;28;20020;-33
2022/11/04 06:26:38;;;;;;;49.42;23.65;;;;;;;;;;5075732;28;20028;-33
2022/11/04 06:29:03;;;;;;;44.55;22.05;;;;;;;;;;5075967;28;20021;-33
2022/11/04 06:31:29;;;;;;;49.47;22.83;;;;;;;;;;5075925;28;20356;-33
2022/11/04 06:33:54;;;;;;;46.10;24.50;;;;;;;;;;5075623;28;20386;-33
2022/11/04 06:36:19;;;;;;;41.72;22.88;;;;;;;;;;5075543;28;20103;-33
2022/11/04 06:38:44;;;;;;;49.03;21.98;;;;;;;;;;5074807;28;20096;-33
2022/11/04 06:41:11;;;;;;;39.20;20.30;;;;;;;;;;5047827;28;20468;-34
2022/11/04 06:43:36;;;;;;;37.92;20.92;;;;;;;;;;5041103;28;20270;-34
2022/11/04 06:46:02;;;;;;;40.47;21.13;;;;;;;;;;5042167;28;20025;-33
2022/11/04 06:48:31;;;;;;;39.45;20.08;;;;;;;;;;5039756;28;20464;-34
2022/11/04 06:50:57;;;;;;;38.85;20.70;;;;;;;;;;5047138;28;20048;-33
2022/11/04 06:53:23;;;;;;;37.38;20.00;;;;;;;;;;5055256;28;20476;-33
2022/11/04 06:55:48;;;;;;;37.35;19.40;;;;;;;;;;5055361;28;20020;-34
2022/11/04 06:58:13;;;;;;;40.58;22.35;;;;;;;;;;5055431;28;20056;-32
2022/11/04 07:00:39;;;;;;;46.58;21.05;;;;;;;;;;5047888;28;20025;-32
2022/11/04 07:03:06;;;;;;;36.70;19.80;;;;;;;;;;5038497;28;20377;-32
2022/11/04 07:05:32;;;;;;;35.63;18.88;;;;;;;;;;5051785;28;20270;-34
2022/11/04 07:07:57;;;;;;;38.38;20.30;;;;;;;;;;5041477;28;20020;-33
2022/11/04 07:10:23;;;;;;;35.88;18.63;;;;;;;;;;5051625;28;20032;-31
2022/11/04 07:12:48;;;;;;;33.50;19.00;;;;;;;;;;5045240;28;20045;-40
2022/11/04 07:15:13;;;;;;;40.67;19.63;;;;;;;;;;5041234;28;20022;-41
2022/11/04 07:17:38;;;;;;;38.55;18.20;;;;;;;;;;5063139;28;20117;-38
2022/11/04 07:20:04;;;;;;;38.92;23.23;;;;;;;;;;5042470;28;20491;-42
2022/11/04 07:22:29;;;;;;;38.85;21.08;;;;;;;;;;5041354;28;20076;-41
2022/11/04 07:24:55;;;;;;;89.25;24.02;;;;;;;;;;5038235;28;20424;-40
2022/11/04 07:27:20;;;;;;;34.25;17.70;;;;;;;;;;5035338;28;20026;-43
2022/11/04 07:32:48;;;;;;;42.45;18.23;;;;;;;;;;5035269;28;20039;-43
2022/11/04 07:35:14;;;;;;;33.97;18.95;;;;;;;;;;5041390;28;20025;-43
2022/11/04 07:37:39;;;;;;;32.05;16.80;;;;;;;;;;5034378;28;20025;-44
2022/11/04 07:40:05;;;;;;;31.10;17.08;;;;;;;;;;5041055;28;20472;-42
2022/11/04 07:42:30;;;;;;;36.00;20.48;;;;;;;;;;5043766;28;20114;-40
2022/11/04 07:44:56;;;;;;;32.67;14.73;;;;;;;;;;5066319;28;20361;-43
2022/11/04 07:47:21;;;;;;;38.47;19.88;;;;;;;;;;5056894;28;20495;-44
2022/11/04 07:49:46;;;;;;;30.27;18.20;;;;;;;;;;5068462;28;20056;-41
2022/11/04 07:52:12;;;;;;;40.50;19.20;;;;;;;;;;5057600;28;20094;-44
2022/11/04 07:54:37;;;;;;;38.00;19.35;;;;;;;;;;5053792;28;20029;-43
2022/11/04 07:57:03;;;;;;;35.67;18.63;;;;;;;;;;5057987;28;20082;-45
2022/11/04 07:59:28;;;;;;;34.40;19.17;;;;;;;;;;5052694;28;20025;-42
2022/11/04 08:01:53;;;;;;;39.42;21.38;;;;;;;;;;5055672;28;20029;-42
2022/11/04 08:04:19;;;;;;;42.97;21.45;;;;;;;;;;5066226;28;20031;-42
2022/11/04 08:06:44;;;;;;;40.63;21.55;;;;;;;;;;5061705;28;20045;-42
2022/11/04 08:09:10;;;;;;;35.17;19.77;;;;;;;;;;5056960;28;20037;-41
2022/11/04 08:11:35;;;;;;;41.55;22.00;;;;;;;;;;5064994;28;20020;-42
2022/11/04 08:14:02;;;;;;;628.90;348.20;;;;;;;;;;5065016;28;20025;-42
2022/11/04 08:16:27;;;;;;;484.60;331.50;;;;;;;;;;5054244;28;20063;-44
2022/11/04 08:18:53;;;;;;;553.45;319.35;;;;;;;;;;5059987;28;20048;-41
2022/11/04 08:21:19;;;;;;;588.72;355.27;;;;;;;;;;5061908;28;20025;-43
2022/11/04 08:23:46;;;;;;;714.85;358.13;;;;;;;;;;5052919;28;20032;-43
2022/11/04 08:26:13;;;;;;;526.85;235.13;;;;;;;;;;5062362;28;20025;-42
2022/11/04 08:28:38;;;;;;;44.67;21.42;;;;;;;;;;5055911;28;20017;-43
2022/11/04 08:31:05;;;;;;;40.28;21.27;;;;;;;;;;5064395;28;20024;-43
2022/11/04 08:33:32;;;;;;;35.40;20.38;;;;;;;;;;5066509;28;20479;-46
2022/11/04 08:36:03;;;;;;;38.50;21.55;;;;;;;;;;5056016;28;20024;-45
2022/11/04 08:38:28;;;;;;;36.35;20.25;;;;;;;;;;5061124;28;20199;-42
2022/11/04 08:41:00;;;;;;;40.33;20.10;;;;;;;;;;5052979;28;20143;-42
2022/11/04 08:43:25;;;;;;;37.88;19.88;;;;;;;;;;5056912;28;20053;-45
2022/11/04 08:45:51;;;;;;;37.33;20.75;;;;;;;;;;5057851;28;20027;-44
2022/11/04 08:48:17;;;;;;;40.38;19.63;;;;;;;;;;5057721;28;20039;-44
2022/11/04 08:50:42;;;;;;;44.88;22.95;;;;;;;;;;5063045;28;20375;-45
2022/11/04 08:53:08;;;;;;;45.78;21.42;;;;;;;;;;5052276;28;20041;-41
2022/11/04 08:55:33;;;;;;;47.03;22.75;;;;;;;;;;5053359;28;20167;-44
2022/11/04 08:57:59;;;;;;;54.90;22.48;;;;;;;;;;5052819;28;20021;-43
2022/11/04 09:00:24;;;;;;;41.95;22.08;;;;;;;;;;5051064;28;20032;-44
2022/11/04 09:02:50;;;;;;;45.28;21.85;;;;;;;;;;5053226;28;20028;-43
2022/11/04 09:05:15;;;;;;;49.38;22.08;;;;;;;;;;5056703;28;20545;-42
2022/11/04 09:07:41;;;;;;;43.75;21.02;;;;;;;;;;5061271;28;20456;-43
2022/11/04 09:10:07;;;;;;;46.15;22.23;;;;;;;;;;5054117;28;20475;-40
2022/11/04 09:12:32;;;;;;;48.60;22.92;;;;;;;;;;5055032;28;20032;-43
2022/11/04 09:14:58;;;;;;;44.70;22.17;;;;;;;;;;5051957;28;20048;-36
2022/11/04 09:17:24;;;;;;;45.35;24.08;;;;;;;;;;5051836;28;20029;-41
2022/11/04 09:19:49;;;;;;;45.63;22.73;;;;;;;;;;5051002;28;20025;-41
2022/11/04 09:22:14;;;;;;;49.50;23.02;;;;;;;;;;5051671;28;20017;-44
2022/11/04 09:24:39;;;;;;;53.72;22.67;;;;;;;;;;5056831;28;20035;-40
2022/11/04 09:27:05;;;;;;;44.47;22.73;;;;;;;;;;5053902;28;20029;-42
2022/11/04 09:29:35;;;;;;;49.75;23.38;;;;;;;;;;5060423;28;20051;-42
2022/11/04 09:32:00;;;;;;;45.45;23.27;;;;;;;;;;5054915;28;20021;-43
2022/11/04 09:34:26;;;;;;;40.60;19.38;;;;;;;;;;5055954;28;20064;-44
2022/11/04 09:36:53;;;;;;;47.80;24.63;;;;;;;;;;5057037;28;20115;-43
2022/11/04 09:39:19;;;;;;;48.83;23.17;;;;;;;;;;5052703;28;20021;-43
2022/11/04 09:41:56;;;;;;;48.55;24.35;;;;;;;;;;5057168;28;20039;-45
2022/11/04 09:44:25;;;;;;;50.55;23.27;;;;;;;;;;5057435;28;20461;-41
2022/11/04 09:46:51;;;;;;;;;;;;;;;;;;5062745;28;20025;-44
2022/11/04 09:49:16;;;;;;;50.22;23.02;;;;;;;;;;5058167;28;19915;-40
2022/11/04 09:51:45;;;;;;;54.90;24.23;;;;;;;;;;5054414;28;20498;-44
2022/11/04 09:54:20;;;;;;;49.80;25.50;;;;;;;;;;5067920;28;20040;-43
2022/11/04 09:56:48;;;;;;;50.08;24.02;;;;;;;;;;5057340;28;20104;-39
2022/11/04 09:59:16;;;;;;;50.33;23.88;;;;;;;;;;5065192;28;20735;-44
2022/11/04 10:01:41;;;;;;;50.25;24.67;;;;;;;;;;5055146;28;20024;-42
2022/11/04 10:04:25;;;;;;;55.75;25.05;;;;;;;;;;5056805;28;20357;-44
2022/11/04 10:06:59;;;;;;;53.50;24.77;;;;;;;;;;5062159;28;20021;-43
2022/11/04 10:09:25;;;;;;;52.55;24.50;;;;;;;;;;5062437;28;20032;-42
2022/11/04 10:11:55;;;;;;;52.03;24.15;;;;;;;;;;5067095;28;20557;-43
2022/11/04 10:14:21;;;;;;;50.70;24.08;;;;;;;;;;5064620;28;20032;-39
2022/11/04 10:16:46;;;;;;;51.33;24.30;;;;;;;;;;5066142;28;20095;-39
2022/11/04 10:19:21;;;;;;;50.55;25.25;;;;;;;;;;5067202;28;20046;-40
2022/11/04 10:22:00;;;;;;;47.85;22.95;;;;;;;;;;5066343;28;20475;-41
2022/11/04 10:24:35;;;;;;;59.35;25.13;;;;;;;;;;5058111;28;20044;-39
2022/11/04 10:27:08;;;;;;;46.03;23.88;;;;;;;;;;5070292;28;20025;-42
2022/11/04 10:29:41;;;;;;;52.45;25.17;;;;;;;;;;5074373;28;20025;-43
2022/11/04 10:32:13;;;;;;;53.33;25.50;;;;;;;;;;5066194;28;20539;-42
2022/11/04 10:34:43;;;;;;;53.25;24.92;;;;;;;;;;5070878;28;20036;-41
2022/11/04 10:37:11;;;;;;;60.85;25.02;;;;;;;;;;5072689;28;20070;-42
2022/11/04 10:39:41;;;;;;;46.72;23.88;;;;;;;;;;5054906;28;20475;-42
2022/11/04 10:42:06;;;;;;;;;;;;;;;;;;5058375;28;20721;-43
2022/11/04 10:44:33;;;;;;;58.72;25.30;;;;;;;;;;5062292;28;20298;-43
2022/11/04 10:47:17;;;;;;;54.72;25.80;;;;;;;;;;5053596;28;20468;-40
2022/11/04 10:49:51;;;;;;;56.22;25.25;;;;;;;;;;5053280;28;20464;-42
2022/11/04 10:52:17;;;;;;;61.83;26.40;;;;;;;;;;5052796;28;20033;-41
2022/11/04 10:54:44;;;;;;;58.95;26.77;;;;;;;;;;5053506;28;20288;-39
2022/11/04 10:57:10;;;;;;;54.65;25.63;;;;;;;;;;5069474;28;20036;-42
2022/11/04 10:59:42;;;;;;;60.50;25.52;;;;;;;;;;5066735;28;20028;-39
2022/11/04 11:02:08;;;;;;;56.70;27.35;;;;;;;;;;5073610;28;20025;-42
2022/11/04 11:04:35;;;;;;;52.78;25.92;;;;;;;;;;5085542;28;20017;-43
2022/11/04 11:07:02;;;;;;;53.25;24.60;;;;;;;;;;5066925;28;20404;-42
2022/11/04 11:09:28;;;;;;;65.13;26.00;;;;;;;;;;5055842;28;20110;-39
2022/11/04 11:11:56;;;;;;;58.60;26.08;;;;;;;;;;5053592;28;20028;-39
2022/11/04 11:14:27;;;;;;;67.53;26.42;;;;;;;;;;5056761;28;20028;-39
2022/11/04 11:16:53;;;;;;;56.28;25.85;;;;;;;;;;5059330;28;20028;-43
2022/11/04 11:19:20;;;;;;;65.75;28.85;;;;;;;;;;5059280;28;20112;-43
2022/11/04 11:21:47;;;;;;;59.65;27.40;;;;;;;;;;5062855;28;20468;-41
2022/11/04 11:24:26;;;;;;;61.53;28.60;;;;;;;;;;5061044;28;20075;-43
2022/11/04 11:26:58;;;;;;;77.25;28.92;;;;;;;;;;5063452;28;20737;-42
2022/11/04 11:29:25;;;;;;;62.67;27.30;;;;;;;;;;5057318;28;20392;-39
2022/11/04 11:31:52;;;;;;;67.60;27.75;;;;;;;;;;5054812;28;20031;-45
2022/11/04 11:34:21;;;;;;;61.03;28.30;;;;;;;;;;5070332;28;20127;-43
2022/11/04 11:36:48;;;;;;;58.72;27.98;;;;;;;;;;5061798;28;20092;-39
2022/11/04 11:39:16;;;;;;;57.70;25.90;;;;;;;;;;5064786;28;20028;-43
2022/11/04 11:41:47;;;;;;;53.53;27.40;;;;;;;;;;5060945;28;20052;-41
2022/11/04 11:44:18;;;;;;;54.55;25.48;;;;;;;;;;5067950;28;20040;-48
2022/11/04 11:46:49;;;;;;;52.95;25.88;;;;;;;;;;5060034;28;20029;-41
2022/11/04 11:49:22;;;;;;;57.60;26.40;;;;;;;;;;5055380;28;20048;-39
2022/11/04 11:51:49;;;;;;;52.20;25.60;;;;;;;;;;5058238;28;20365;-38
2022/11/04 11:54:21;;;;;;;55.55;25.38;;;;;;;;;;5057813;28;20124;-44
2022/11/04 11:57:10;;;;;;;60.90;27.42;;;;;;;;;;5069069;28;20020;-41
2022/11/04 11:59:41;;;;;;;60.97;28.48;;;;;;;;;;5053293;28;20041;-41
2022/11/04 12:02:27;;;;;;;58.88;24.67;;;;;;;;;;5056123;28;20033;-43
2022/11/04 12:04:55;;;;;;;60.45;26.17;;;;;;;;;;5060679;28;20183;-42
2022/11/04 12:07:42;;;;;;;61.67;26.35;;;;;;;;;;5056403;28;20116;-42
2022/11/04 12:10:19;;;;;;;63.03;29.00;;;;;;;;;;5056765;28;20033;-42
2022/11/04 12:12:50;;;;;;;62.67;28.05;;;;;;;;;;5055465;28;20549;-41
2022/11/04 12:15:21;;;;;;;57.72;26.88;;;;;;;;;;5062962;28;20094;-39
2022/11/04 12:17:52;;;;;;;57.53;27.42;;;;;;;;;;5062660;28;20032;-44
2022/11/04 12:20:20;;;;;;;57.63;26.95;;;;;;;;;;5059841;28;20028;-43
2022/11/04 12:22:52;;;;;;;53.60;24.27;;;;;;;;;;5053641;28;20056;-40
2022/11/04 12:25:30;;;;;;;54.30;24.73;;;;;;;;;;5065252;28;20308;-44
2022/11/04 12:28:08;;;;;;;59.60;26.95;;;;;;;;;;5057503;28;20025;-42
2022/11/04 12:30:44;;;;;;;58.20;26.08;;;;;;;;;;5062820;28;20077;-39
2022/11/04 12:33:09;;;;;;;62.63;25.48;;;;;;;;;;5056542;28;20063;-41
2022/11/04 12:35:47;;;;;;;53.70;25.03;;;;;;;;;;5057147;28;20468;-41
2022/11/04 12:38:13;;;;;;;54.28;27.38;;;;;;;;;;5068301;28;20330;-41
2022/11/04 12:40:38;;;;;;;53.63;26.00;;;;;;;;;;5069661;28;20096;-40
2022/11/04 12:43:21;;;;;;;53.78;25.98;;;;;;;;;;5063960;28;20376;-40
2022/11/04 12:45:55;;;;;;;54.92;25.63;;;;;;;;;;5068841;28;20487;-41
2022/11/04 12:48:39;;;;;;;61.55;26.95;;;;;;;;;;5059244;28;20036;-42
2022/11/04 12:51:10;;;;;;;57.25;27.17;;;;;;;;;;5059599;28;20028;-40
2022/11/04 12:53:59;;;;;;;57.80;26.13;;;;;;;;;;5051777;28;20476;-41
2022/11/04 12:56:36;;;;;;;62.03;28.05;;;;;;;;;;5049940;28;20036;-40
2022/11/04 12:59:17;;;;;;;59.50;29.70;;;;;;;;;;5057130;28;20025;-42
2022/11/04 13:01:42;;;;;;;59.75;31.45;;;;;;;;;;5059626;28;20029;-43
2022/11/04 13:04:10;;;;;;;60.85;28.05;;;;;;;;;;5053098;28;20036;-47
2022/11/04 13:06:41;;;;;;;63.17;26.50;;;;;;;;;;5058949;28;20463;-43
2022/11/04 13:09:36;;;;;;;54.08;25.20;;;;;;;;;;5056541;28;20044;-42
2022/11/04 13:12:13;;;;;;;56.45;27.85;;;;;;;;;;5043154;28;20045;-40
2022/11/04 13:14:50;;;;;;;71.03;27.77;;;;;;;;;;5070001;28;20707;-40
2022/11/04 13:17:25;;;;;;;52.03;24.52;;;;;;;;;;5063434;28;20060;-43
2022/11/04 13:19:52;;;;;;;61.53;25.98;;;;;;;;;;5063240;28;20484;-40
2022/11/04 13:22:21;;;;;;;50.47;23.73;;;;;;;;;;5057178;28;20056;-44
2022/11/04 13:25:05;;;;;;;53.35;25.55;;;;;;;;;;5055770;28;20021;-43
2022/11/04 13:27:37;;;;;;;60.40;26.55;;;;;;;;;;5060542;28;20033;-43
2022/11/04 13:30:02;;;;;;;64.55;26.35;;;;;;;;;;5052635;28;20083;-40
2022/11/04 13:32:30;;;;;;;56.13;25.63;;;;;;;;;;5053881;28;20013;-39
2022/11/04 13:34:59;;;;;;;56.30;24.87;;;;;;;;;;5053465;28;20439;-41
2022/11/04 13:37:50;;;;;;;55.23;25.07;;;;;;;;;;5056111;28;20139;-42
2022/11/04 13:40:18;;;;;;;54.40;25.58;;;;;;;;;;5060346;28;20047;-40
2022/11/04 13:42:53;;;;;;;54.28;25.00;;;;;;;;;;5059833;28;20048;-43
2022/11/04 13:45:19;;;;;;;56.20;26.83;;;;;;;;;;5059133;28;20032;-44
2022/11/04 13:47:49;;;;;;;53.75;25.77;;;;;;;;;;5057811;28;20036;-44
2022/11/04 13:50:34;;;;;;;60.67;29.50;;;;;;;;;;5054973;28;20033;-41
2022/11/04 13:53:00;;;;;;;61.83;28.38;;;;;;;;;;5059635;28;20044;-43
2022/11/04 13:55:25;;;;;;;60.47;27.08;;;;;;;;;;5062527;28;20025;-42
2022/11/04 13:57:52;;;;;;;53.42;25.85;;;;;;;;;;5055240;28;20074;-44
2022/11/04 14:00:20;;;;;;;51.15;26.63;;;;;;;;;;5058233;28;20398;-43
2022/11/04 14:02:46;;;;;;;63.00;29.48;;;;;;;;;;5063768;28;20025;-46
2022/11/04 14:05:27;;;;;;;56.97;28.75;;;;;;;;;;5057109;28;20104;-45
2022/11/04 14:08:01;;;;;;;53.45;25.52;;;;;;;;;;5054308;28;20082;-44
2022/11/04 14:10:45;;;;;;;58.80;26.92;;;;;;;;;;5059088;28;20028;-44
2022/11/04 14:13:26;;;;;;;52.33;25.73;;;;;;;;;;5053247;28;20044;-42
2022/11/04 14:15:59;;;;;;;62.85;27.65;;;;;;;;;;5055208;28;20116;-40
2022/11/04 14:18:28;;;;;;;53.70;26.27;;;;;;;;;;5052269;28;20025;-41
2022/11/04 14:21:14;;;;;;;57.40;26.77;;;;;;;;;;5049825;28;20368;-47
2022/11/04 14:23:40;;;;;;;55.92;26.58;;;;;;;;;;5055795;28;20147;-39
2022/11/04 14:26:07;;;;;;;52.13;25.75;;;;;;;;;;5056734;28;20047;-42
2022/11/04 14:28:33;;;;;;;67.35;27.30;;;;;;;;;;5060953;28;20384;-42
2022/11/04 14:31:08;;;;;;;56.80;25.85;;;;;;;;;;5052677;28;20033;-43
2022/11/04 14:33:35;;;;;;;51.55;25.80;;;;;;;;;;5058767;28;20048;-45
2022/11/04 14:36:16;;;;;;;53.33;25.25;;;;;;;;;;5075736;28;20024;-43
2022/11/04 14:38:42;;;;;;;70.03;27.17;;;;;;;;;;5060769;28;20036;-43
2022/11/04 14:41:10;;;;;;;57.45;24.30;;;;;;;;;;5063476;28;20028;-45
2022/11/04 14:43:38;;;;;;;77.03;26.10;;;;;;;;;;5059084;28;20686;-42
2022/11/04 14:46:03;;;;;;;83.25;37.50;;;;;;;;;;5052522;28;20031;-44
2022/11/04 14:48:29;;;;;;;67.88;27.67;;;;;;;;;;5054146;28;20384;-43
2022/11/04 14:50:55;;;;;;;57.63;28.35;;;;;;;;;;5054183;28;20106;-43
2022/11/04 14:53:27;;;;;;;62.38;26.77;;;;;;;;;;5055151;28;20482;-43
2022/11/04 14:56:12;;;;;;;49.75;23.55;;;;;;;;;;5055155;28;20372;-41
2022/11/04 14:58:37;;;;;;;67.60;26.15;;;;;;;;;;5052840;28;20098;-42
2022/11/04 15:01:03;;;;;;;60.13;26.10;;;;;;;;;;5053023;28;20025;-42
2022/11/04 15:03:32;;;;;;;59.35;26.92;;;;;;;;;;5053189;28;20246;-42
2022/11/04 15:06:02;;;;;;;61.03;27.25;;;;;;;;;;5053570;28;20013;-40